Osgood, Ohio
Current Conditions -  °F | °C
As of 4:55 AM on Saturday 27 Dec 2014 (Local Time) from KVES Reporting Station
Overcast Overcast  
Wind Chill: 40°   Ceiling: 6500
Heat Index: 43°   Visibility: 10mi
Dew Point: 37°   Wind: 5mph
Humidity: 81%   Direction: 150°SSE
Pressure: 30.12"   Gusts: NA
Location:  40.34°N, 84.5°W
Report Text: KVES 270955Z AUTO 15004KT 10SM BKN065 OVC080 06/03 A3012 RMK AO2
Loading
Personal Weather Stations






























Interactive Weather Map New forecast layout! Learn more

10-Day Weather Forecast

Advertisements
Track Severe Weather on mobile